sensor_id;sensor_type;location;lat;lon;timestamp;temperature;humidity
30134;DHT22;16946;49.984;10.672;2022-12-24T00:00:26;10.60;99.90
30134;DHT22;16946;49.984;10.672;2022-12-24T00:00:58;10.50;99.90
30134;DHT22;16946;49.984;10.672;2022-12-24T00:01:29;10.60;99.90
30134;DHT22;16946;49.984;10.672;2022-12-24T00:01:59;10.60;99.90
30134;DHT22;16946;49.984;10.672;2022-12-24T00:02:30;10.60;99.90
30134;DHT22;16946;49.984;10.672;2022-12-24T00:03:00;10.60;99.90
30134;DHT22;16946;49.984;10.672;2022-12-24T00:03:31;10.50;99.90
30134;DHT22;16946;49.984;10.672;2022-12-24T00:04:02;10.50;99.90
30134;DHT22;16946;49.984;10.672;2022-12-24T00:04:33;10.50;99.90
30134;DHT22;16946;49.984;10.672;2022-12-24T00:05:04;10.50;99.90
30134;DHT22;16946;49.984;10.672;2022-12-24T00:05:36;10.50;99.90
30134;DHT22;16946;49.984;10.672;2022-12-24T00:06:09;10.50;99.90
30134;DHT22;16946;49.984;10.672;2022-12-24T00:06:42;10.50;99.90
30134;DHT22;16946;49.984;10.672;2022-12-24T00:07:13;10.50;99.90
30134;DHT22;16946;49.984;10.672;2022-12-24T00:07:44;10.50;99.90
30134;DHT22;16946;49.984;10.672;2022-12-24T00:08:14;10.50;99.90
30134;DHT22;16946;49.984;10.672;2022-12-24T00:08:45;10.50;99.90
30134;DHT22;16946;49.984;10.672;2022-12-24T00:09:16;10.60;99.90
30134;DHT22;16946;49.984;10.672;2022-12-24T00:09:46;10.60;99.90
30134;DHT22;16946;49.984;10.672;2022-12-24T00:10:17;10.60;99.90
30134;DHT22;16946;49.984;10.672;2022-12-24T00:10:51;10.60;99.90
30134;DHT22;16946;49.984;10.672;2022-12-24T00:11:22;10.70;99.90
30134;DHT22;16946;49.984;10.672;2022-12-24T00:11:52;10.80;99.90
30134;DHT22;16946;49.984;10.672;2022-12-24T00:12:23;10.80;99.90
30134;DHT22;16946;49.984;10.672;2022-12-24T00:12:54;10.80;99.90
30134;DHT22;16946;49.984;10.672;2022-12-24T00:13:24;10.90;99.90
30134;DHT22;16946;49.984;10.672;2022-12-24T00:13:55;10.90;99.90
30134;DHT22;16946;49.984;10.672;2022-12-24T00:14:25;10.90;99.90
30134;DHT22;16946;49.984;10.672;2022-12-24T00:14:56;10.90;99.90
30134;DHT22;16946;49.984;10.672;2022-12-24T00:15:26;10.90;99.90
30134;DHT22;16946;49.984;10.672;2022-12-24T00:15:57;10.80;99.90
30134;DHT22;16946;49.984;10.672;2022-12-24T00:16:28;10.90;99.90
30134;DHT22;16946;49.984;10.672;2022-12-24T00:16:58;10.90;99.90
30134;DHT22;16946;49.984;10.672;2022-12-24T00:17:29;10.90;99.90
30134;DHT22;16946;49.984;10.672;2022-12-24T00:17:59;10.90;99.90
30134;DHT22;16946;49.984;10.672;2022-12-24T00:18:30;10.90;99.90
30134;DHT22;16946;49.984;10.672;2022-12-24T00:19:00;10.90;99.90
30134;DHT22;16946;49.984;10.672;2022-12-24T00:19:31;11.00;99.90
30134;DHT22;16946;49.984;10.672;2022-12-24T00:20:01;11.10;99.90
30134;DHT22;16946;49.984;10.672;2022-12-24T00:20:33;11.10;99.90
30134;DHT22;16946;49.984;10.672;2022-12-24T00:21:04;11.10;99.90
30134;DHT22;16946;49.984;10.672;2022-12-24T00:21:36;11.20;99.90
30134;DHT22;16946;49.984;10.672;2022-12-24T00:22:06;11.20;99.90
30134;DHT22;16946;49.984;10.672;2022-12-24T00:22:37;11.20;99.90
30134;DHT22;16946;49.984;10.672;2022-12-24T00:23:08;11.20;99.90
30134;DHT22;16946;49.984;10.672;2022-12-24T00:23:39;11.20;99.90
30134;DHT22;16946;49.984;10.672;2022-12-24T00:24:10;11.30;99.90
30134;DHT22;16946;49.984;10.672;2022-12-24T00:24:40;11.30;99.90
30134;DHT22;16946;49.984;10.672;2022-12-24T00:25:11;11.30;99.90
30134;DHT22;16946;49.984;10.672;2022-12-24T00:25:42;11.40;99.90
30134;DHT22;16946;49.984;10.672;2022-12-24T00:26:13;11.40;99.90
30134;DHT22;16946;49.984;10.672;2022-12-24T00:26:43;11.30;99.90
30134;DHT22;16946;49.984;10.672;2022-12-24T00:27:14;11.40;99.90
30134;DHT22;16946;49.984;10.672;2022-12-24T00:27:44;11.40;99.90
30134;DHT22;16946;49.984;10.672;2022-12-24T00:28:15;11.40;99.90
30134;DHT22;16946;49.984;10.672;2022-12-24T00:28:46;11.40;99.90
30134;DHT22;16946;49.984;10.672;2022-12-24T00:29:16;11.40;99.90
30134;DHT22;16946;49.984;10.672;2022-12-24T00:29:47;11.40;99.90
30134;DHT22;16946;49.984;10.672;2022-12-24T00:30:17;11.50;99.90
30134;DHT22;16946;49.984;10.672;2022-12-24T00:30:48;11.40;99.90
30134;DHT22;16946;49.984;10.672;2022-12-24T00:31:19;11.50;99.90
30134;DHT22;16946;49.984;10.672;2022-12-24T00:31:49;11.40;99.90
30134;DHT22;16946;49.984;10.672;2022-12-24T00:32:20;11.40;99.90
30134;DHT22;16946;49.984;10.672;2022-12-24T00:32:50;11.50;99.90
30134;DHT22;16946;49.984;10.672;2022-12-24T00:33:21;11.50;99.90
30134;DHT22;16946;49.984;10.672;2022-12-24T00:33:52;11.50;99.90
30134;DHT22;16946;49.984;10.672;2022-12-24T00:34:23;11.50;99.90
30134;DHT22;16946;49.984;10.672;2022-12-24T00:34:54;11.50;99.90
30134;DHT22;16946;49.984;10.672;2022-12-24T00:35:24;11.50;99.90
30134;DHT22;16946;49.984;10.672;2022-12-24T00:35:55;11.50;99.90
30134;DHT22;16946;49.984;10.672;2022-12-24T00:36:25;11.50;99.90
30134;DHT22;16946;49.984;10.672;2022-12-24T00:36:56;11.50;99.90
30134;DHT22;16946;49.984;10.672;2022-12-24T00:37:26;11.50;99.90
30134;DHT22;16946;49.984;10.672;2022-12-24T00:37:57;11.50;99.90
30134;DHT22;16946;49.984;10.672;2022-12-24T00:38:27;11.50;99.90
30134;DHT22;16946;49.984;10.672;2022-12-24T00:38:58;11.50;99.90
30134;DHT22;16946;49.984;10.672;2022-12-24T00:39:29;11.50;99.90
30134;DHT22;16946;49.984;10.672;2022-12-24T00:39:59;11.50;99.90
30134;DHT22;16946;49.984;10.672;2022-12-24T00:40:30;11.50;99.90
30134;DHT22;16946;49.984;10.672;2022-12-24T00:41:02;11.50;99.90
30134;DHT22;16946;49.984;10.672;2022-12-24T00:41:33;11.40;99.90
30134;DHT22;16946;49.984;10.672;2022-12-24T00:42:03;11.40;99.90
30134;DHT22;16946;49.984;10.672;2022-12-24T00:42:34;11.40;99.90
30134;DHT22;16946;49.984;10.672;2022-12-24T00:43:05;11.40;99.90
30134;DHT22;16946;49.984;10.672;2022-12-24T00:43:35;11.40;99.90
30134;DHT22;16946;49.984;10.672;2022-12-24T00:44:06;11.40;99.90
30134;DHT22;16946;49.984;10.672;2022-12-24T00:44:39;11.50;99.90
30134;DHT22;16946;49.984;10.672;2022-12-24T00:45:10;11.50;99.90
30134;DHT22;16946;49.984;10.672;2022-12-24T00:45:41;11.50;99.90
30134;DHT22;16946;49.984;10.672;2022-12-24T00:46:11;11.50;99.90
30134;DHT22;16946;49.984;10.672;2022-12-24T00:46:42;11.50;99.90
30134;DHT22;16946;49.984;10.672;2022-12-24T00:47:12;11.40;99.90
30134;DHT22;16946;49.984;10.672;2022-12-24T00:47:43;11.50;99.90
30134;DHT22;16946;49.984;10.672;2022-12-24T00:48:13;11.50;99.90
30134;DHT22;16946;49.984;10.672;2022-12-24T00:48:44;11.40;99.90
30134;DHT22;16946;49.984;10.672;2022-12-24T00:49:14;11.40;99.90
30134;DHT22;16946;49.984;10.672;2022-12-24T00:49:45;11.40;99.90
30134;DHT22;16946;49.984;10.672;2022-12-24T00:50:15;11.40;99.90
30134;DHT22;16946;49.984;10.672;2022-12-24T00:50:46;11.40;99.90
30134;DHT22;16946;49.984;10.672;2022-12-24T00:51:17;11.30;99.90
30134;DHT22;16946;49.984;10.672;2022-12-24T00:51:48;11.30;99.90
30134;DHT22;16946;49.984;10.672;2022-12-24T00:52:19;11.30;99.90
30134;DHT22;16946;49.984;10.672;2022-12-24T00:52:50;11.20;99.90
30134;DHT22;16946;49.984;10.672;2022-12-24T00:53:20;11.10;99.90
30134;DHT22;16946;49.984;10.672;2022-12-24T00:53:51;11.10;99.90
30134;DHT22;16946;49.984;10.672;2022-12-24T00:54:22;11.10;99.90
30134;DHT22;16946;49.984;10.672;2022-12-24T00:54:53;11.00;99.90
30134;DHT22;16946;49.984;10.672;2022-12-24T00:55:23;11.10;99.90
30134;DHT22;16946;49.984;10.672;2022-12-24T00:55:53;11.10;99.90
30134;DHT22;16946;49.984;10.672;2022-12-24T00:56:24;11.10;99.90
30134;DHT22;16946;49.984;10.672;2022-12-24T00:56:55;11.10;99.90
30134;DHT22;16946;49.984;10.672;2022-12-24T00:57:25;11.00;99.90
30134;DHT22;16946;49.984;10.672;2022-12-24T00:57:56;11.00;99.90
30134;DHT22;16946;49.984;10.672;2022-12-24T00:58:26;11.00;99.90
30134;DHT22;16946;49.984;10.672;2022-12-24T00:58:57;11.00;99.90
30134;DHT22;16946;49.984;10.672;2022-12-24T00:59:27;11.00;99.90
30134;DHT22;16946;49.984;10.672;2022-12-24T00:59:58;11.00;99.90
30134;DHT22;16946;49.984;10.672;2022-12-24T01:00:28;11.00;99.90
30134;DHT22;16946;49.984;10.672;2022-12-24T01:00:59;11.00;99.90
30134;DHT22;16946;49.984;10.672;2022-12-24T01:01:30;10.90;99.90
30134;DHT22;16946;49.984;10.672;2022-12-24T01:02:00;11.00;99.90
30134;DHT22;16946;49.984;10.672;2022-12-24T01:02:31;10.90;99.90
30134;DHT22;16946;49.984;10.672;2022-12-24T01:03:01;10.90;99.90
30134;DHT22;16946;49.984;10.672;2022-12-24T01:03:32;10.90;99.90
30134;DHT22;16946;49.984;10.672;2022-12-24T01:04:05;10.90;99.90
30134;DHT22;16946;49.984;10.672;2022-12-24T01:04:56;10.90;99.90
30134;DHT22;16946;49.984;10.672;2022-12-24T01:05:41;10.80;99.90
30134;DHT22;16946;49.984;10.672;2022-12-24T01:06:15;10.70;99.90
30134;DHT22;16946;49.984;10.672;2022-12-24T01:06:45;10.70;99.90
30134;DHT22;16946;49.984;10.672;2022-12-24T01:07:16;10.70;99.90
30134;DHT22;16946;49.984;10.672;2022-12-24T01:07:47;10.70;99.90
30134;DHT22;16946;49.984;10.672;2022-12-24T01:08:17;10.70;99.90
30134;DHT22;16946;49.984;10.672;2022-12-24T01:08:51;10.70;99.90
30134;DHT22;16946;49.984;10.672;2022-12-24T01:09:21;10.60;99.90
30134;DHT22;16946;49.984;10.672;2022-12-24T01:09:52;10.70;99.90
30134;DHT22;16946;49.984;10.672;2022-12-24T01:10:22;10.70;99.90
30134;DHT22;16946;49.984;10.672;2022-12-24T01:10:53;10.60;99.90
30134;DHT22;16946;49.984;10.672;2022-12-24T01:11:23;10.60;99.90
30134;DHT22;16946;49.984;10.672;2022-12-24T01:11:54;10.60;99.90
30134;DHT22;16946;49.984;10.672;2022-12-24T01:12:25;10.50;99.90
30134;DHT22;16946;49.984;10.672;2022-12-24T01:12:55;10.50;99.90
30134;DHT22;16946;49.984;10.672;2022-12-24T01:13:26;10.50;99.90
30134;DHT22;16946;49.984;10.672;2022-12-24T01:13:56;10.50;99.90
30134;DHT22;16946;49.984;10.672;2022-12-24T01:14:27;10.40;99.90
30134;DHT22;16946;49.984;10.672;2022-12-24T01:14:57;10.40;99.90
30134;DHT22;16946;49.984;10.672;2022-12-24T01:15:28;10.40;99.90
30134;DHT22;16946;49.984;10.672;2022-12-24T01:15:59;10.40;99.90
30134;DHT22;16946;49.984;10.672;2022-12-24T01:16:30;10.30;99.90
30134;DHT22;16946;49.984;10.672;2022-12-24T01:17:01;10.30;99.90
30134;DHT22;16946;49.984;10.672;2022-12-24T01:17:33;10.20;99.90
30134;DHT22;16946;49.984;10.672;2022-12-24T01:18:04;10.20;99.90
30134;DHT22;16946;49.984;10.672;2022-12-24T01:18:35;10.20;99.90
30134;DHT22;16946;49.984;10.672;2022-12-24T01:19:05;10.20;99.90
30134;DHT22;16946;49.984;10.672;2022-12-24T01:19:36;10.20;99.90
30134;DHT22;16946;49.984;10.672;2022-12-24T01:20:09;10.20;99.90
30134;DHT22;16946;49.984;10.672;2022-12-24T01:20:42;10.20;99.90
30134;DHT22;16946;49.984;10.672;2022-12-24T01:21:13;10.20;99.90
30134;DHT22;16946;49.984;10.672;2022-12-24T01:21:44;10.20;99.90
30134;DHT22;16946;49.984;10.672;2022-12-24T01:22:15;10.10;99.90
30134;DHT22;16946;49.984;10.672;2022-12-24T01:22:45;10.10;99.90
30134;DHT22;16946;49.984;10.672;2022-12-24T01:23:16;10.10;99.90
30134;DHT22;16946;49.984;10.672;2022-12-24T01:23:46;10.10;99.90
30134;DHT22;16946;49.984;10.672;2022-12-24T01:24:17;10.10;99.90
30134;DHT22;16946;49.984;10.672;2022-12-24T01:24:47;10.10;99.90
30134;DHT22;16946;49.984;10.672;2022-12-24T01:25:18;10.00;99.90
30134;DHT22;16946;49.984;10.672;2022-12-24T01:25:48;10.10;99.90
30134;DHT22;16946;49.984;10.672;2022-12-24T01:26:19;10.10;99.90
30134;DHT22;16946;49.984;10.672;2022-12-24T01:26:49;10.10;99.90
30134;DHT22;16946;49.984;10.672;2022-12-24T01:27:20;10.20;99.90
30134;DHT22;16946;49.984;10.672;2022-12-24T01:27:50;10.10;99.90
30134;DHT22;16946;49.984;10.672;2022-12-24T01:28:21;10.20;99.90
30134;DHT22;16946;49.984;10.672;2022-12-24T01:28:52;10.20;99.90
30134;DHT22;16946;49.984;10.672;2022-12-24T01:29:22;10.20;99.90
30134;DHT22;16946;49.984;10.672;2022-12-24T01:29:53;10.20;99.90
30134;DHT22;16946;49.984;10.672;2022-12-24T01:30:24;10.30;99.90
30134;DHT22;16946;49.984;10.672;2022-12-24T01:30:54;10.20;99.90
30134;DHT22;16946;49.984;10.672;2022-12-24T01:31:25;10.20;99.90
30134;DHT22;16946;49.984;10.672;2022-12-24T01:31:55;10.20;99.90
30134;DHT22;16946;49.984;10.672;2022-12-24T01:32:26;10.30;99.90
30134;DHT22;16946;49.984;10.672;2022-12-24T01:32:57;10.30;99.90
30134;DHT22;16946;49.984;10.672;2022-12-24T01:33:30;10.30;99.90
30134;DHT22;16946;49.984;10.672;2022-12-24T01:34:01;10.30;99.90
30134;DHT22;16946;49.984;10.672;2022-12-24T01:34:31;10.30;99.90
30134;DHT22;16946;49.984;10.672;2022-12-24T01:35:02;10.30;99.90
30134;DHT22;16946;49.984;10.672;2022-12-24T01:35:33;10.40;99.90
30134;DHT22;16946;49.984;10.672;2022-12-24T01:36:03;10.40;99.90
30134;DHT22;16946;49.984;10.672;2022-12-24T01:36:35;10.40;99.90
30134;DHT22;16946;49.984;10.672;2022-12-24T01:37:05;10.30;99.90
30134;DHT22;16946;49.984;10.672;2022-12-24T01:37:36;10.40;99.90
30134;DHT22;16946;49.984;10.672;2022-12-24T01:38:07;10.50;99.90
30134;DHT22;16946;49.984;10.672;2022-12-24T01:38:38;10.50;99.90
30134;DHT22;16946;49.984;10.672;2022-12-24T01:39:09;10.60;99.90
30134;DHT22;16946;49.984;10.672;2022-12-24T01:39:39;10.70;99.90
30134;DHT22;16946;49.984;10.672;2022-12-24T01:40:14;10.70;99.90
30134;DHT22;16946;49.984;10.672;2022-12-24T01:41:03;10.80;99.90
30134;DHT22;16946;49.984;10.672;2022-12-24T01:41:53;10.80;99.90
30134;DHT22;16946;49.984;10.672;2022-12-24T01:42:45;10.80;99.90
30134;DHT22;16946;49.984;10.672;2022-12-24T01:43:35;10.90;99.90
30134;DHT22;16946;49.984;10.672;2022-12-24T01:44:30;10.90;99.90
30134;DHT22;16946;49.984;10.672;2022-12-24T01:46:03;11.00;99.90
30134;DHT22;16946;49.984;10.672;2022-12-24T01:46:35;11.00;99.90
30134;DHT22;16946;49.984;10.672;2022-12-24T01:47:13;10.90;99.90
30134;DHT22;16946;49.984;10.672;2022-12-24T01:47:44;11.00;99.90
30134;DHT22;16946;49.984;10.672;2022-12-24T01:48:59;11.00;99.90
30134;DHT22;16946;49.984;10.672;2022-12-24T01:49:31;10.90;99.90
30134;DHT22;16946;49.984;10.672;2022-12-24T01:50:14;11.00;99.90
30134;DHT22;16946;49.984;10.672;2022-12-24T01:50:47;10.90;99.90
30134;DHT22;16946;49.984;10.672;2022-12-24T01:52:02;10.90;99.90
30134;DHT22;16946;49.984;10.672;2022-12-24T01:52:34;10.90;99.90
30134;DHT22;16946;49.984;10.672;2022-12-24T01:53:07;10.90;99.90
30134;DHT22;16946;49.984;10.672;2022-12-24T01:53:42;10.90;99.90
30134;DHT22;16946;49.984;10.672;2022-12-24T01:54:17;10.90;99.90
30134;DHT22;16946;49.984;10.672;2022-12-24T01:54:54;10.90;99.90
30134;DHT22;16946;49.984;10.672;2022-12-24T01:55:26;10.90;99.90
30134;DHT22;16946;49.984;10.672;2022-12-24T01:55:57;10.90;99.90
30134;DHT22;16946;49.984;10.672;2022-12-24T01:56:30;10.90;99.90
30134;DHT22;16946;49.984;10.672;2022-12-24T01:57:10;10.90;99.90
30134;DHT22;16946;49.984;10.672;2022-12-24T01:57:50;11.00;99.90
30134;DHT22;16946;49.984;10.672;2022-12-24T01:58:23;10.90;99.90
30134;DHT22;16946;49.984;10.672;2022-12-24T01:58:58;11.00;99.90
30134;DHT22;16946;49.984;10.672;2022-12-24T01:59:29;11.00;99.90
30134;DHT22;16946;49.984;10.672;2022-12-24T02:00:07;11.00;99.90
30134;DHT22;16946;49.984;10.672;2022-12-24T02:00:38;11.00;99.90
30134;DHT22;16946;49.984;10.672;2022-12-24T02:01:09;11.00;99.90
30134;DHT22;16946;49.984;10.672;2022-12-24T02:01:39;11.00;99.90
30134;DHT22;16946;49.984;10.672;2022-12-24T02:02:10;11.00;99.90
30134;DHT22;16946;49.984;10.672;2022-12-24T02:02:45;11.00;99.90
30134;DHT22;16946;49.984;10.672;2022-12-24T02:03:17;11.00;99.90
30134;DHT22;16946;49.984;10.672;2022-12-24T02:03:48;11.00;99.90
30134;DHT22;16946;49.984;10.672;2022-12-24T02:04:50;11.00;99.90
30134;DHT22;16946;49.984;10.672;2022-12-24T02:05:37;11.00;99.90
30134;DHT22;16946;49.984;10.672;2022-12-24T02:06:09;11.00;99.90
30134;DHT22;16946;49.984;10.672;2022-12-24T02:06:41;11.00;99.90
30134;DHT22;16946;49.984;10.672;2022-12-24T02:07:12;11.00;99.90
30134;DHT22;16946;49.984;10.672;2022-12-24T02:07:43;11.00;99.90
30134;DHT22;16946;49.984;10.672;2022-12-24T02:08:16;11.00;99.90
30134;DHT22;16946;49.984;10.672;2022-12-24T02:08:46;11.00;99.90
30134;DHT22;16946;49.984;10.672;2022-12-24T02:09:17;11.00;99.90
30134;DHT22;16946;49.984;10.672;2022-12-24T02:09:48;11.00;99.90
30134;DHT22;16946;49.984;10.672;2022-12-24T02:10:20;10.90;99.90
30134;DHT22;16946;49.984;10.672;2022-12-24T02:10:50;10.90;99.90
30134;DHT22;16946;49.984;10.672;2022-12-24T02:11:21;11.00;99.90
30134;DHT22;16946;49.984;10.672;2022-12-24T02:11:52;10.90;99.90
30134;DHT22;16946;49.984;10.672;2022-12-24T02:12:24;11.00;99.90
30134;DHT22;16946;49.984;10.672;2022-12-24T02:12:56;11.00;99.90
30134;DHT22;16946;49.984;10.672;2022-12-24T02:13:26;11.00;99.90
30134;DHT22;16946;49.984;10.672;2022-12-24T02:13:59;11.00;99.90
30134;DHT22;16946;49.984;10.672;2022-12-24T02:14:31;11.00;99.90
30134;DHT22;16946;49.984;10.672;2022-12-24T02:15:05;11.00;99.90
30134;DHT22;16946;49.984;10.672;2022-12-24T02:16:04;11.00;99.90
30134;DHT22;16946;49.984;10.672;2022-12-24T02:19:03;10.90;99.90
30134;DHT22;16946;49.984;10.672;2022-12-24T02:21:53;10.90;99.90
30134;DHT22;16946;49.984;10.672;2022-12-24T02:22:32;10.90;99.90
30134;DHT22;16946;49.984;10.672;2022-12-24T02:23:27;10.90;99.90
30134;DHT22;16946;49.984;10.672;2022-12-24T02:24:26;10.80;99.90
30134;DHT22;16946;49.984;10.672;2022-12-24T02:25:29;10.90;99.90
30134;DHT22;16946;49.984;10.672;2022-12-24T02:26:30;10.90;99.90
30134;DHT22;16946;49.984;10.672;2022-12-24T02:27:41;10.90;99.90
30134;DHT22;16946;49.984;10.672;2022-12-24T02:30:15;10.90;99.90
30134;DHT22;16946;49.984;10.672;2022-12-24T02:30:53;10.90;99.90
30134;DHT22;16946;49.984;10.672;2022-12-24T02:31:36;10.90;99.90
30134;DHT22;16946;49.984;10.672;2022-12-24T02:32:14;10.90;99.90
30134;DHT22;16946;49.984;10.672;2022-12-24T02:33:37;10.90;99.90
30134;DHT22;16946;49.984;10.672;2022-12-24T02:34:17;10.90;99.90
30134;DHT22;16946;49.984;10.672;2022-12-24T02:35:45;10.90;99.90
30134;DHT22;16946;49.984;10.672;2022-12-24T02:36:43;10.90;99.90
30134;DHT22;16946;49.984;10.672;2022-12-24T02:37:29;10.90;99.90
30134;DHT22;16946;49.984;10.672;2022-12-24T02:38:18;10.90;99.90
30134;DHT22;16946;49.984;10.672;2022-12-24T02:38:57;10.90;99.90
30134;DHT22;16946;49.984;10.672;2022-12-24T02:39:38;10.90;99.90
30134;DHT22;16946;49.984;10.672;2022-12-24T02:40:17;10.90;99.90
30134;DHT22;16946;49.984;10.672;2022-12-24T02:40:52;10.90;99.90
30134;DHT22;16946;49.984;10.672;2022-12-24T02:41:25;10.90;99.90
30134;DHT22;16946;49.984;10.672;2022-12-24T02:41:57;10.90;99.90
30134;DHT22;16946;49.984;10.672;2022-12-24T02:42:40;10.90;99.90
30134;DHT22;16946;49.984;10.672;2022-12-24T02:43:18;10.90;99.90
30134;DHT22;16946;49.984;10.672;2022-12-24T02:43:51;10.80;99.90
30134;DHT22;16946;49.984;10.672;2022-12-24T02:44:26;10.90;99.90
30134;DHT22;16946;49.984;10.672;2022-12-24T02:46:05;10.90;99.90
30134;DHT22;16946;49.984;10.672;2022-12-24T02:46:37;11.00;99.90
30134;DHT22;16946;49.984;10.672;2022-12-24T02:47:08;11.00;99.90
30134;DHT22;16946;49.984;10.672;2022-12-24T02:47:40;10.90;99.90
30134;DHT22;16946;49.984;10.672;2022-12-24T02:48:14;10.90;99.90
30134;DHT22;16946;49.984;10.672;2022-12-24T02:48:47;10.90;99.90
30134;DHT22;16946;49.984;10.672;2022-12-24T02:49:18;10.90;99.90
30134;DHT22;16946;49.984;10.672;2022-12-24T02:49:49;10.80;99.90
30134;DHT22;16946;49.984;10.672;2022-12-24T02:50:19;10.80;99.90
30134;DHT22;16946;49.984;10.672;2022-12-24T02:50:58;10.80;99.90
30134;DHT22;16946;49.984;10.672;2022-12-24T02:51:28;10.80;99.90
30134;DHT22;16946;49.984;10.672;2022-12-24T02:51:59;10.70;99.90
30134;DHT22;16946;49.984;10.672;2022-12-24T02:53:05;10.80;99.90
30134;DHT22;16946;49.984;10.672;2022-12-24T02:53:36;10.70;99.90
30134;DHT22;16946;49.984;10.672;2022-12-24T02:54:07;10.70;99.90
30134;DHT22;16946;49.984;10.672;2022-12-24T02:54:37;10.70;99.90
30134;DHT22;16946;49.984;10.672;2022-12-24T02:55:25;10.70;99.90
30134;DHT22;16946;49.984;10.672;2022-12-24T02:57:12;10.70;99.90
30134;DHT22;16946;49.984;10.672;2022-12-24T02:59:58;10.70;99.90
30134;DHT22;16946;49.984;10.672;2022-12-24T03:01:00;10.70;99.90
30134;DHT22;16946;49.984;10.672;2022-12-24T03:03:37;10.70;99.90
30134;DHT22;16946;49.984;10.672;2022-12-24T03:05:27;10.70;99.90
30134;DHT22;16946;49.984;10.672;2022-12-24T03:06:55;10.70;99.90
30134;DHT22;16946;49.984;10.672;2022-12-24T03:07:36;10.70;99.90
30134;DHT22;16946;49.984;10.672;2022-12-24T03:09:14;10.70;99.90
30134;DHT22;16946;49.984;10.672;2022-12-24T03:09:55;10.70;99.90
30134;DHT22;16946;49.984;10.672;2022-12-24T03:10:40;10.60;99.90
30134;DHT22;16946;49.984;10.672;2022-12-24T03:11:14;10.60;99.90
30134;DHT22;16946;49.984;10.672;2022-12-24T03:11:59;10.60;99.90
30134;DHT22;16946;49.984;10.672;2022-12-24T03:13:23;10.60;99.90
30134;DHT22;16946;49.984;10.672;2022-12-24T03:13:56;10.60;99.90
30134;DHT22;16946;49.984;10.672;2022-12-24T03:14:29;10.60;99.90
30134;DHT22;16946;49.984;10.672;2022-12-24T03:15:00;10.60;99.90
30134;DHT22;16946;49.984;10.672;2022-12-24T03:15:31;10.60;99.90
30134;DHT22;16946;49.984;10.672;2022-12-24T03:16:05;10.60;99.90
30134;DHT22;16946;49.984;10.672;2022-12-24T03:16:37;10.60;99.90
30134;DHT22;16946;49.984;10.672;2022-12-24T03:17:09;10.60;99.90
30134;DHT22;16946;49.984;10.672;2022-12-24T03:17:41;10.60;99.90
30134;DHT22;16946;49.984;10.672;2022-12-24T03:18:16;10.60;99.90
30134;DHT22;16946;49.984;10.672;2022-12-24T03:18:48;10.60;99.90
30134;DHT22;16946;49.984;10.672;2022-12-24T03:19:20;10.60;99.90
30134;DHT22;16946;49.984;10.672;2022-12-24T03:19:51;10.60;99.90
30134;DHT22;16946;49.984;10.672;2022-12-24T03:20:55;10.60;99.90
30134;DHT22;16946;49.984;10.672;2022-12-24T03:21:32;10.60;99.90
30134;DHT22;16946;49.984;10.672;2022-12-24T03:22:08;10.60;99.90
30134;DHT22;16946;49.984;10.672;2022-12-24T03:22:39;10.60;99.90
30134;DHT22;16946;49.984;10.672;2022-12-24T03:23:10;10.60;99.90
30134;DHT22;16946;49.984;10.672;2022-12-24T03:23:41;10.60;99.90
30134;DHT22;16946;49.984;10.672;2022-12-24T03:24:12;10.60;99.90
30134;DHT22;16946;49.984;10.672;2022-12-24T03:24:42;10.60;99.90
30134;DHT22;16946;49.984;10.672;2022-12-24T03:25:13;10.60;99.90
30134;DHT22;16946;49.984;10.672;2022-12-24T03:25:44;10.70;99.90
30134;DHT22;16946;49.984;10.672;2022-12-24T03:26:17;10.70;99.90
30134;DHT22;16946;49.984;10.672;2022-12-24T03:26:48;10.70;99.90
30134;DHT22;16946;49.984;10.672;2022-12-24T03:27:19;10.70;99.90
30134;DHT22;16946;49.984;10.672;2022-12-24T03:27:50;10.70;99.90
30134;DHT22;16946;49.984;10.672;2022-12-24T03:28:25;10.70;99.90
30134;DHT22;16946;49.984;10.672;2022-12-24T03:28:56;10.70;99.90
30134;DHT22;16946;49.984;10.672;2022-12-24T03:29:26;10.70;99.90
30134;DHT22;16946;49.984;10.672;2022-12-24T03:29:57;10.80;99.90
30134;DHT22;16946;49.984;10.672;2022-12-24T03:30:28;10.70;99.90
30134;DHT22;16946;49.984;10.672;2022-12-24T03:31:02;10.70;99.90
30134;DHT22;16946;49.984;10.672;2022-12-24T03:31:43;10.70;99.90
30134;DHT22;16946;49.984;10.672;2022-12-24T03:32:14;10.70;99.90
30134;DHT22;16946;49.984;10.672;2022-12-24T03:32:45;10.70;99.90
30134;DHT22;16946;49.984;10.672;2022-12-24T03:33:16;10.70;99.90
30134;DHT22;16946;49.984;10.672;2022-12-24T03:33:47;10.70;99.90
30134;DHT22;16946;49.984;10.672;2022-12-24T03:34:18;10.70;99.90
30134;DHT22;16946;49.984;10.672;2022-12-24T03:34:49;10.70;99.90
30134;DHT22;16946;49.984;10.672;2022-12-24T03:35:20;10.70;99.90
30134;DHT22;16946;49.984;10.672;2022-12-24T03:35:50;10.70;99.90
30134;DHT22;16946;49.984;10.672;2022-12-24T03:36:21;10.60;99.90
30134;DHT22;16946;49.984;10.672;2022-12-24T03:36:54;10.60;99.90
30134;DHT22;16946;49.984;10.672;2022-12-24T03:37:25;10.60;99.90
30134;DHT22;16946;49.984;10.672;2022-12-24T03:37:56;10.60;99.90
30134;DHT22;16946;49.984;10.672;2022-12-24T03:38:27;10.60;99.90
30134;DHT22;16946;49.984;10.672;2022-12-24T03:38:57;10.60;99.90
30134;DHT22;16946;49.984;10.672;2022-12-24T03:39:28;10.60;99.90
30134;DHT22;16946;49.984;10.672;2022-12-24T03:39:58;10.60;99.90
30134;DHT22;16946;49.984;10.672;2022-12-24T03:40:29;10.60;99.90
30134;DHT22;16946;49.984;10.672;2022-12-24T03:41:01;10.60;99.90
30134;DHT22;16946;49.984;10.672;2022-12-24T03:41:32;10.60;99.90
30134;DHT22;16946;49.984;10.672;2022-12-24T03:42:02;10.60;99.90
30134;DHT22;16946;49.984;10.672;2022-12-24T03:42:33;10.50;99.90
30134;DHT22;16946;49.984;10.672;2022-12-24T03:43:04;10.50;99.90
30134;DHT22;16946;49.984;10.672;2022-12-24T03:43:34;10.60;99.90
30134;DHT22;16946;49.984;10.672;2022-12-24T03:44:05;10.60;99.90
30134;DHT22;16946;49.984;10.672;2022-12-24T03:44:35;10.60;99.90
30134;DHT22;16946;49.984;10.672;2022-12-24T03:45:06;10.60;99.90
30134;DHT22;16946;49.984;10.672;2022-12-24T03:45:38;10.60;99.90
30134;DHT22;16946;49.984;10.672;2022-12-24T03:46:08;10.50;99.90
30134;DHT22;16946;49.984;10.672;2022-12-24T03:46:39;10.60;99.90
30134;DHT22;16946;49.984;10.672;2022-12-24T03:47:09;10.60;99.90
30134;DHT22;16946;49.984;10.672;2022-12-24T03:47:40;10.60;99.90
30134;DHT22;16946;49.984;10.672;2022-12-24T03:48:10;10.70;99.90